sensor_id;sensor_type;location;lat;lon;timestamp;temperature;humidity
23251;DHT22;11794;49.730;10.088;2022-11-04T00:01:41;11.30;99.90
23251;DHT22;11794;49.730;10.088;2022-11-04T00:04:07;11.30;99.90
23251;DHT22;11794;49.730;10.088;2022-11-04T00:06:33;11.30;99.90
23251;DHT22;11794;49.730;10.088;2022-11-04T00:08:59;11.30;99.90
23251;DHT22;11794;49.730;10.088;2022-11-04T00:11:26;11.20;99.90
23251;DHT22;11794;49.730;10.088;2022-11-04T00:14:11;11.10;99.90
23251;DHT22;11794;49.730;10.088;2022-11-04T00:16:37;11.10;99.90
23251;DHT22;11794;49.730;10.088;2022-11-04T00:19:22;11.00;99.90
23251;DHT22;11794;49.730;10.088;2022-11-04T00:21:48;11.00;99.90
23251;DHT22;11794;49.730;10.088;2022-11-04T00:24:32;11.00;99.90
23251;DHT22;11794;49.730;10.088;2022-11-04T00:27:15;10.90;99.90
23251;DHT22;11794;49.730;10.088;2022-11-04T00:30:00;10.90;99.90
23251;DHT22;11794;49.730;10.088;2022-11-04T00:32:26;10.90;99.90
23251;DHT22;11794;49.730;10.088;2022-11-04T00:35:11;10.90;99.90
23251;DHT22;11794;49.730;10.088;2022-11-04T00:37:41;10.90;99.90
23251;DHT22;11794;49.730;10.088;2022-11-04T00:40:08;10.90;99.90
23251;DHT22;11794;49.730;10.088;2022-11-04T00:42:35;10.90;99.90
23251;DHT22;11794;49.730;10.088;2022-11-04T00:45:00;10.80;99.90
23251;DHT22;11794;49.730;10.088;2022-11-04T00:47:26;10.80;99.90
23251;DHT22;11794;49.730;10.088;2022-11-04T00:49:52;10.80;99.90
23251;DHT22;11794;49.730;10.088;2022-11-04T00:52:18;10.80;99.90
23251;DHT22;11794;49.730;10.088;2022-11-04T00:54:43;10.80;99.90
23251;DHT22;11794;49.730;10.088;2022-11-04T00:57:10;10.90;99.90
23251;DHT22;11794;49.730;10.088;2022-11-04T00:59:35;10.80;99.90
23251;DHT22;11794;49.730;10.088;2022-11-04T01:02:01;10.80;99.90
23251;DHT22;11794;49.730;10.088;2022-11-04T01:04:26;10.80;99.90
23251;DHT22;11794;49.730;10.088;2022-11-04T01:06:52;10.80;99.90
23251;DHT22;11794;49.730;10.088;2022-11-04T01:09:18;10.80;99.90
23251;DHT22;11794;49.730;10.088;2022-11-04T01:11:43;10.80;99.90
23251;DHT22;11794;49.730;10.088;2022-11-04T01:14:10;10.80;99.90
23251;DHT22;11794;49.730;10.088;2022-11-04T01:16:35;10.80;99.90
23251;DHT22;11794;49.730;10.088;2022-11-04T01:19:01;10.80;99.90
23251;DHT22;11794;49.730;10.088;2022-11-04T01:21:27;10.80;99.90
23251;DHT22;11794;49.730;10.088;2022-11-04T01:23:53;10.80;99.90
23251;DHT22;11794;49.730;10.088;2022-11-04T01:26:21;10.80;99.90
23251;DHT22;11794;49.730;10.088;2022-11-04T01:28:47;10.80;99.90
23251;DHT22;11794;49.730;10.088;2022-11-04T01:31:18;10.80;99.90
23251;DHT22;11794;49.730;10.088;2022-11-04T01:33:48;10.80;99.90
23251;DHT22;11794;49.730;10.088;2022-11-04T01:36:14;10.70;99.90
23251;DHT22;11794;49.730;10.088;2022-11-04T01:38:40;10.80;99.90
23251;DHT22;11794;49.730;10.088;2022-11-04T01:41:06;10.80;99.90
23251;DHT22;11794;49.730;10.088;2022-11-04T01:43:49;10.70;99.90
23251;DHT22;11794;49.730;10.088;2022-11-04T01:46:36;10.70;99.90
23251;DHT22;11794;49.730;10.088;2022-11-04T01:49:10;10.80;99.90
23251;DHT22;11794;49.730;10.088;2022-11-04T01:51:44;10.80;99.90
23251;DHT22;11794;49.730;10.088;2022-11-04T01:54:10;10.80;99.90
23251;DHT22;11794;49.730;10.088;2022-11-04T01:56:37;10.70;99.90
23251;DHT22;11794;49.730;10.088;2022-11-04T01:59:10;10.70;99.90
23251;DHT22;11794;49.730;10.088;2022-11-04T02:01:37;10.70;99.90
23251;DHT22;11794;49.730;10.088;2022-11-04T02:04:03;10.70;99.90
23251;DHT22;11794;49.730;10.088;2022-11-04T02:06:48;10.70;99.90
23251;DHT22;11794;49.730;10.088;2022-11-04T02:09:17;10.70;99.90
23251;DHT22;11794;49.730;10.088;2022-11-04T02:11:43;10.70;99.90
23251;DHT22;11794;49.730;10.088;2022-11-04T02:14:28;10.60;99.90
23251;DHT22;11794;49.730;10.088;2022-11-04T02:17:44;10.60;99.90
23251;DHT22;11794;49.730;10.088;2022-11-04T02:22:43;10.50;99.90
23251;DHT22;11794;49.730;10.088;2022-11-04T02:31:25;10.50;99.90
23251;DHT22;11794;49.730;10.088;2022-11-04T02:45:18;10.50;99.90
23251;DHT22;11794;49.730;10.088;2022-11-04T02:47:51;10.50;99.90
23251;DHT22;11794;49.730;10.088;2022-11-04T02:50:30;10.50;99.90
23251;DHT22;11794;49.730;10.088;2022-11-04T02:53:03;10.50;99.90
23251;DHT22;11794;49.730;10.088;2022-11-04T02:55:39;10.50;99.90
23251;DHT22;11794;49.730;10.088;2022-11-04T02:58:12;10.50;99.90
23251;DHT22;11794;49.730;10.088;2022-11-04T03:00:41;10.50;99.90
23251;DHT22;11794;49.730;10.088;2022-11-04T03:03:20;10.40;99.90
23251;DHT22;11794;49.730;10.088;2022-11-04T03:05:49;10.50;99.90
23251;DHT22;11794;49.730;10.088;2022-11-04T03:08:26;10.40;99.90
23251;DHT22;11794;49.730;10.088;2022-11-04T03:10:58;10.40;99.90
23251;DHT22;11794;49.730;10.088;2022-11-04T03:13:34;10.40;99.90
23251;DHT22;11794;49.730;10.088;2022-11-04T03:16:04;10.40;99.90
23251;DHT22;11794;49.730;10.088;2022-11-04T03:21:08;10.40;99.90
23251;DHT22;11794;49.730;10.088;2022-11-04T03:23:34;10.40;99.90
23251;DHT22;11794;49.730;10.088;2022-11-04T03:26:14;10.40;99.90
23251;DHT22;11794;49.730;10.088;2022-11-04T03:28:46;10.40;99.90
23251;DHT22;11794;49.730;10.088;2022-11-04T03:31:29;10.40;99.90
23251;DHT22;11794;49.730;10.088;2022-11-04T03:33:57;10.40;99.90
23251;DHT22;11794;49.730;10.088;2022-11-04T03:36:22;10.40;99.90
23251;DHT22;11794;49.730;10.088;2022-11-04T03:38:49;10.30;99.90
23251;DHT22;11794;49.730;10.088;2022-11-04T03:41:28;10.30;99.90
23251;DHT22;11794;49.730;10.088;2022-11-04T03:43:55;10.30;99.90
23251;DHT22;11794;49.730;10.088;2022-11-04T03:46:21;10.40;99.90
23251;DHT22;11794;49.730;10.088;2022-11-04T03:48:46;10.40;99.90
23251;DHT22;11794;49.730;10.088;2022-11-04T03:51:12;10.40;99.90
23251;DHT22;11794;49.730;10.088;2022-11-04T03:53:38;10.40;99.90
23251;DHT22;11794;49.730;10.088;2022-11-04T03:59:27;10.40;99.90
23251;DHT22;11794;49.730;10.088;2022-11-04T04:01:38;10.40;99.90
23251;DHT22;11794;49.730;10.088;2022-11-04T04:04:31;10.30;99.90
23251;DHT22;11794;49.730;10.088;2022-11-04T04:07:05;10.30;99.90
23251;DHT22;11794;49.730;10.088;2022-11-04T04:10:06;10.30;99.90
23251;DHT22;11794;49.730;10.088;2022-11-04T04:12:57;10.30;99.90
23251;DHT22;11794;49.730;10.088;2022-11-04T04:15:29;10.30;99.90
23251;DHT22;11794;49.730;10.088;2022-11-04T04:18:00;10.30;99.90
23251;DHT22;11794;49.730;10.088;2022-11-04T04:20:28;10.20;99.90
23251;DHT22;11794;49.730;10.088;2022-11-04T04:23:00;10.20;99.90
23251;DHT22;11794;49.730;10.088;2022-11-04T04:25:29;10.10;99.90
23251;DHT22;11794;49.730;10.088;2022-11-04T04:28:16;10.10;99.90
23251;DHT22;11794;49.730;10.088;2022-11-04T04:30:43;10.10;99.90
23251;DHT22;11794;49.730;10.088;2022-11-04T04:33:15;10.10;99.90
23251;DHT22;11794;49.730;10.088;2022-11-04T04:35:50;10.10;99.90
23251;DHT22;11794;49.730;10.088;2022-11-04T04:38:22;10.10;99.90
23251;DHT22;11794;49.730;10.088;2022-11-04T04:41:15;10.10;99.90
23251;DHT22;11794;49.730;10.088;2022-11-04T04:44:00;10.10;99.90
23251;DHT22;11794;49.730;10.088;2022-11-04T04:46:46;10.10;99.90
23251;DHT22;11794;49.730;10.088;2022-11-04T04:49:12;10.00;99.90
23251;DHT22;11794;49.730;10.088;2022-11-04T04:51:41;10.00;99.90
23251;DHT22;11794;49.730;10.088;2022-11-04T04:54:07;10.00;99.90
23251;DHT22;11794;49.730;10.088;2022-11-04T04:56:33;9.90;99.90
23251;DHT22;11794;49.730;10.088;2022-11-04T04:58:58;9.90;99.90
23251;DHT22;11794;49.730;10.088;2022-11-04T05:01:24;9.90;99.90
23251;DHT22;11794;49.730;10.088;2022-11-04T05:03:49;9.90;99.90
23251;DHT22;11794;49.730;10.088;2022-11-04T05:06:15;9.90;99.90
23251;DHT22;11794;49.730;10.088;2022-11-04T05:08:40;9.90;99.90
23251;DHT22;11794;49.730;10.088;2022-11-04T05:11:06;9.80;99.90
23251;DHT22;11794;49.730;10.088;2022-11-04T05:13:31;9.80;99.90
23251;DHT22;11794;49.730;10.088;2022-11-04T05:16:07;9.80;99.90
23251;DHT22;11794;49.730;10.088;2022-11-04T05:18:33;9.80;99.90
23251;DHT22;11794;49.730;10.088;2022-11-04T05:21:06;9.70;99.90
23251;DHT22;11794;49.730;10.088;2022-11-04T05:23:33;9.70;99.90
23251;DHT22;11794;49.730;10.088;2022-11-04T05:25:58;9.70;99.90
23251;DHT22;11794;49.730;10.088;2022-11-04T05:28:24;9.70;99.90
23251;DHT22;11794;49.730;10.088;2022-11-04T05:30:49;9.70;99.90
23251;DHT22;11794;49.730;10.088;2022-11-04T05:33:15;9.70;99.90
23251;DHT22;11794;49.730;10.088;2022-11-04T05:35:40;9.70;99.90
23251;DHT22;11794;49.730;10.088;2022-11-04T05:38:06;9.60;99.90
23251;DHT22;11794;49.730;10.088;2022-11-04T05:40:31;9.60;99.90
23251;DHT22;11794;49.730;10.088;2022-11-04T05:42:58;9.60;99.90
23251;DHT22;11794;49.730;10.088;2022-11-04T05:45:24;9.60;99.90
23251;DHT22;11794;49.730;10.088;2022-11-04T05:47:56;9.60;99.90
23251;DHT22;11794;49.730;10.088;2022-11-04T05:50:22;9.50;99.90
23251;DHT22;11794;49.730;10.088;2022-11-04T05:52:47;9.50;99.90
23251;DHT22;11794;49.730;10.088;2022-11-04T05:55:13;9.50;99.90
23251;DHT22;11794;49.730;10.088;2022-11-04T05:57:38;9.50;99.90
23251;DHT22;11794;49.730;10.088;2022-11-04T06:00:04;9.50;99.90
23251;DHT22;11794;49.730;10.088;2022-11-04T06:02:30;9.50;99.90
23251;DHT22;11794;49.730;10.088;2022-11-04T06:04:56;9.40;99.90
23251;DHT22;11794;49.730;10.088;2022-11-04T06:07:21;9.40;99.90
23251;DHT22;11794;49.730;10.088;2022-11-04T06:09:47;9.40;99.90
23251;DHT22;11794;49.730;10.088;2022-11-04T06:12:14;9.30;99.90
23251;DHT22;11794;49.730;10.088;2022-11-04T06:14:43;9.30;99.90
23251;DHT22;11794;49.730;10.088;2022-11-04T06:17:16;9.30;99.90
23251;DHT22;11794;49.730;10.088;2022-11-04T06:19:42;9.30;99.90
23251;DHT22;11794;49.730;10.088;2022-11-04T06:22:12;9.30;99.90
23251;DHT22;11794;49.730;10.088;2022-11-04T06:24:38;9.30;99.90
23251;DHT22;11794;49.730;10.088;2022-11-04T06:27:04;9.20;99.90
23251;DHT22;11794;49.730;10.088;2022-11-04T06:29:29;9.20;99.90
23251;DHT22;11794;49.730;10.088;2022-11-04T06:31:55;9.20;99.90
23251;DHT22;11794;49.730;10.088;2022-11-04T06:34:20;9.20;99.90
23251;DHT22;11794;49.730;10.088;2022-11-04T06:36:47;9.10;99.90
23251;DHT22;11794;49.730;10.088;2022-11-04T06:39:13;9.20;99.90
23251;DHT22;11794;49.730;10.088;2022-11-04T06:41:39;9.10;99.90
23251;DHT22;11794;49.730;10.088;2022-11-04T06:44:04;9.10;99.90
23251;DHT22;11794;49.730;10.088;2022-11-04T06:46:38;9.10;99.90
23251;DHT22;11794;49.730;10.088;2022-11-04T06:49:05;9.00;99.90
23251;DHT22;11794;49.730;10.088;2022-11-04T06:51:31;9.00;99.90
23251;DHT22;11794;49.730;10.088;2022-11-04T06:53:57;9.00;99.90
23251;DHT22;11794;49.730;10.088;2022-11-04T06:56:23;9.00;99.90
23251;DHT22;11794;49.730;10.088;2022-11-04T06:58:50;9.00;99.90
23251;DHT22;11794;49.730;10.088;2022-11-04T07:01:17;9.00;99.90
23251;DHT22;11794;49.730;10.088;2022-11-04T07:03:43;9.00;99.90
23251;DHT22;11794;49.730;10.088;2022-11-04T07:06:09;9.00;99.90
23251;DHT22;11794;49.730;10.088;2022-11-04T07:08:35;8.90;99.90
23251;DHT22;11794;49.730;10.088;2022-11-04T07:11:01;8.90;99.90
23251;DHT22;11794;49.730;10.088;2022-11-04T07:13:27;8.90;99.90
23251;DHT22;11794;49.730;10.088;2022-11-04T07:15:52;8.90;99.90
23251;DHT22;11794;49.730;10.088;2022-11-04T07:18:18;8.90;99.90
23251;DHT22;11794;49.730;10.088;2022-11-04T07:20:44;8.90;99.90
23251;DHT22;11794;49.730;10.088;2022-11-04T07:23:09;8.90;99.90
23251;DHT22;11794;49.730;10.088;2022-11-04T07:25:35;8.90;99.90
23251;DHT22;11794;49.730;10.088;2022-11-04T07:28:00;8.80;99.90
23251;DHT22;11794;49.730;10.088;2022-11-04T07:30:26;8.90;99.90
23251;DHT22;11794;49.730;10.088;2022-11-04T07:32:52;8.90;99.90
23251;DHT22;11794;49.730;10.088;2022-11-04T07:35:18;9.00;99.90
23251;DHT22;11794;49.730;10.088;2022-11-04T07:37:43;9.00;99.90
23251;DHT22;11794;49.730;10.088;2022-11-04T07:40:09;9.00;99.90
23251;DHT22;11794;49.730;10.088;2022-11-04T07:42:35;9.00;99.90
23251;DHT22;11794;49.730;10.088;2022-11-04T07:45:00;9.00;99.90
23251;DHT22;11794;49.730;10.088;2022-11-04T07:47:29;9.00;99.90
23251;DHT22;11794;49.730;10.088;2022-11-04T07:49:54;9.10;99.90
23251;DHT22;11794;49.730;10.088;2022-11-04T07:52:20;9.20;99.90
23251;DHT22;11794;49.730;10.088;2022-11-04T07:54:46;9.30;99.90
23251;DHT22;11794;49.730;10.088;2022-11-04T07:57:11;9.40;99.90
23251;DHT22;11794;49.730;10.088;2022-11-04T07:59:37;9.40;99.90
23251;DHT22;11794;49.730;10.088;2022-11-04T08:02:02;9.50;99.90
23251;DHT22;11794;49.730;10.088;2022-11-04T08:04:28;9.60;99.90
23251;DHT22;11794;49.730;10.088;2022-11-04T08:06:53;9.60;99.90
23251;DHT22;11794;49.730;10.088;2022-11-04T08:09:19;9.60;99.90
23251;DHT22;11794;49.730;10.088;2022-11-04T08:11:45;9.70;99.90
23251;DHT22;11794;49.730;10.088;2022-11-04T08:14:10;9.80;99.90
23251;DHT22;11794;49.730;10.088;2022-11-04T08:16:36;9.90;99.90
23251;DHT22;11794;49.730;10.088;2022-11-04T08:19:01;9.90;99.90
23251;DHT22;11794;49.730;10.088;2022-11-04T08:21:28;10.00;99.90
23251;DHT22;11794;49.730;10.088;2022-11-04T08:23:54;10.10;99.90
23251;DHT22;11794;49.730;10.088;2022-11-04T08:26:20;10.10;99.90
23251;DHT22;11794;49.730;10.088;2022-11-04T08:28:48;10.00;99.90
23251;DHT22;11794;49.730;10.088;2022-11-04T08:31:17;10.10;99.90
23251;DHT22;11794;49.730;10.088;2022-11-04T08:33:44;10.10;99.90
23251;DHT22;11794;49.730;10.088;2022-11-04T08:36:15;10.10;99.90
23251;DHT22;11794;49.730;10.088;2022-11-04T08:38:41;10.00;99.90
23251;DHT22;11794;49.730;10.088;2022-11-04T08:41:09;10.10;99.90
23251;DHT22;11794;49.730;10.088;2022-11-04T08:43:34;10.00;99.90
23251;DHT22;11794;49.730;10.088;2022-11-04T08:46:01;10.00;99.90
23251;DHT22;11794;49.730;10.088;2022-11-04T08:48:28;10.00;99.90
23251;DHT22;11794;49.730;10.088;2022-11-04T08:50:55;9.90;99.90
23251;DHT22;11794;49.730;10.088;2022-11-04T08:53:23;9.80;99.90
23251;DHT22;11794;49.730;10.088;2022-11-04T08:55:49;9.70;99.90
23251;DHT22;11794;49.730;10.088;2022-11-04T08:58:15;9.80;99.90
23251;DHT22;11794;49.730;10.088;2022-11-04T09:00:40;9.90;99.90
23251;DHT22;11794;49.730;10.088;2022-11-04T09:03:06;9.90;99.90
23251;DHT22;11794;49.730;10.088;2022-11-04T09:05:32;9.90;99.90
23251;DHT22;11794;49.730;10.088;2022-11-04T09:07:58;9.80;99.90
23251;DHT22;11794;49.730;10.088;2022-11-04T09:10:25;9.80;99.90
23251;DHT22;11794;49.730;10.088;2022-11-04T09:12:51;9.80;99.90
23251;DHT22;11794;49.730;10.088;2022-11-04T09:15:16;9.80;99.90
23251;DHT22;11794;49.730;10.088;2022-11-04T09:17:42;9.90;99.90
23251;DHT22;11794;49.730;10.088;2022-11-04T09:20:09;9.90;99.90
23251;DHT22;11794;49.730;10.088;2022-11-04T09:22:35;10.00;99.90
23251;DHT22;11794;49.730;10.088;2022-11-04T09:25:00;10.00;99.90
23251;DHT22;11794;49.730;10.088;2022-11-04T09:27:26;10.00;99.90
23251;DHT22;11794;49.730;10.088;2022-11-04T09:29:51;10.00;99.90
23251;DHT22;11794;49.730;10.088;2022-11-04T09:32:17;10.10;99.90
23251;DHT22;11794;49.730;10.088;2022-11-04T09:34:42;10.20;99.90
23251;DHT22;11794;49.730;10.088;2022-11-04T09:37:08;10.20;99.90
23251;DHT22;11794;49.730;10.088;2022-11-04T09:39:33;10.20;99.90
23251;DHT22;11794;49.730;10.088;2022-11-04T09:44:26;10.20;99.90
23251;DHT22;11794;49.730;10.088;2022-11-04T09:46:57;10.10;99.90
23251;DHT22;11794;49.730;10.088;2022-11-04T09:49:27;10.20;99.90
23251;DHT22;11794;49.730;10.088;2022-11-04T09:51:55;10.30;99.90
23251;DHT22;11794;49.730;10.088;2022-11-04T09:54:34;10.40;99.90
23251;DHT22;11794;49.730;10.088;2022-11-04T09:57:03;10.20;99.90
23251;DHT22;11794;49.730;10.088;2022-11-04T09:59:32;10.30;99.90
23251;DHT22;11794;49.730;10.088;2022-11-04T10:02:25;10.30;99.90
23251;DHT22;11794;49.730;10.088;2022-11-04T10:07:53;10.40;99.90
23251;DHT22;11794;49.730;10.088;2022-11-04T10:10:36;10.40;99.90
23251;DHT22;11794;49.730;10.088;2022-11-04T10:18:39;10.80;99.90
23251;DHT22;11794;49.730;10.088;2022-11-04T10:26:38;11.10;99.90
23251;DHT22;11794;49.730;10.088;2022-11-04T10:29:08;11.30;99.90
23251;DHT22;11794;49.730;10.088;2022-11-04T10:31:37;11.50;99.90
23251;DHT22;11794;49.730;10.088;2022-11-04T10:34:07;11.50;99.90
23251;DHT22;11794;49.730;10.088;2022-11-04T10:36:36;11.40;99.90
23251;DHT22;11794;49.730;10.088;2022-11-04T10:39:11;11.40;99.90
23251;DHT22;11794;49.730;10.088;2022-11-04T10:41:39;11.60;99.90
23251;DHT22;11794;49.730;10.088;2022-11-04T10:44:15;11.90;99.90
23251;DHT22;11794;49.730;10.088;2022-11-04T10:49:39;12.20;99.90
23251;DHT22;11794;49.730;10.088;2022-11-04T10:52:07;12.50;99.90
23251;DHT22;11794;49.730;10.088;2022-11-04T10:54:45;12.60;99.90
23251;DHT22;11794;49.730;10.088;2022-11-04T10:57:12;12.80;99.90
23251;DHT22;11794;49.730;10.088;2022-11-04T11:07:47;12.80;99.90
23251;DHT22;11794;49.730;10.088;2022-11-04T11:10:29;12.70;99.90
23251;DHT22;11794;49.730;10.088;2022-11-04T11:15:29;12.70;99.90
23251;DHT22;11794;49.730;10.088;2022-11-04T11:18:17;12.70;99.90
23251;DHT22;11794;49.730;10.088;2022-11-04T11:21:02;12.70;99.90
23251;DHT22;11794;49.730;10.088;2022-11-04T11:26:02;12.80;99.90
23251;DHT22;11794;49.730;10.088;2022-11-04T11:28:28;12.90;99.90
23251;DHT22;11794;49.730;10.088;2022-11-04T11:30:57;13.00;99.90
23251;DHT22;11794;49.730;10.088;2022-11-04T11:38:28;12.60;99.90
23251;DHT22;11794;49.730;10.088;2022-11-04T11:41:12;12.60;99.90
23251;DHT22;11794;49.730;10.088;2022-11-04T11:43:48;12.40;99.90
23251;DHT22;11794;49.730;10.088;2022-11-04T11:46:24;12.50;99.90
23251;DHT22;11794;49.730;10.088;2022-11-04T11:48:53;12.40;99.90
23251;DHT22;11794;49.730;10.088;2022-11-04T11:51:25;12.60;99.90
23251;DHT22;11794;49.730;10.088;2022-11-04T11:56:32;12.70;99.90
23251;DHT22;11794;49.730;10.088;2022-11-04T11:59:12;12.90;99.90
23251;DHT22;11794;49.730;10.088;2022-11-04T12:01:47;13.20;99.90
23251;DHT22;11794;49.730;10.088;2022-11-04T12:04:16;13.60;99.90
23251;DHT22;11794;49.730;10.088;2022-11-04T12:12:26;13.50;99.90
23251;DHT22;11794;49.730;10.088;2022-11-04T12:17:55;13.70;99.90
23251;DHT22;11794;49.730;10.088;2022-11-04T12:23:30;15.50;99.90
23251;DHT22;11794;49.730;10.088;2022-11-04T12:26:08;16.40;99.90
23251;DHT22;11794;49.730;10.088;2022-11-04T12:32:19;17.00;99.90
23251;DHT22;11794;49.730;10.088;2022-11-04T12:40:27;17.20;99.90
23251;DHT22;11794;49.730;10.088;2022-11-04T12:48:11;16.10;99.90
23251;DHT22;11794;49.730;10.088;2022-11-04T12:51:11;15.30;99.90
23251;DHT22;11794;49.730;10.088;2022-11-04T12:56:36;14.40;99.90
23251;DHT22;11794;49.730;10.088;2022-11-04T13:02:03;13.80;99.90
23251;DHT22;11794;49.730;10.088;2022-11-04T13:04:39;13.40;99.90
23251;DHT22;11794;49.730;10.088;2022-11-04T13:07:18;13.20;99.90
23251;DHT22;11794;49.730;10.088;2022-11-04T13:09:49;12.80;99.90
23251;DHT22;11794;49.730;10.088;2022-11-04T13:12:31;12.60;99.90
23251;DHT22;11794;49.730;10.088;2022-11-04T13:15:02;12.60;99.90
23251;DHT22;11794;49.730;10.088;2022-11-04T13:17:33;12.50;99.90
23251;DHT22;11794;49.730;10.088;2022-11-04T13:20:12;12.50;99.90
23251;DHT22;11794;49.730;10.088;2022-11-04T13:22:46;12.50;99.90
23251;DHT22;11794;49.730;10.088;2022-11-04T13:25:37;12.60;99.90
23251;DHT22;11794;49.730;10.088;2022-11-04T13:28:10;12.80;99.90
23251;DHT22;11794;49.730;10.088;2022-11-04T13:33:26;12.90;99.90
23251;DHT22;11794;49.730;10.088;2022-11-04T13:38:35;12.80;99.90
23251;DHT22;11794;49.730;10.088;2022-11-04T13:43:59;13.00;99.90
23251;DHT22;11794;49.730;10.088;2022-11-04T13:46:30;13.00;99.90
23251;DHT22;11794;49.730;10.088;2022-11-04T13:49:24;12.90;99.90
23251;DHT22;11794;49.730;10.088;2022-11-04T13:52:09;12.80;99.90
23251;DHT22;11794;49.730;10.088;2022-11-04T14:02:51;12.70;99.90
23251;DHT22;11794;49.730;10.088;2022-11-04T14:16:01;12.70;99.90
23251;DHT22;11794;49.730;10.088;2022-11-04T14:18:32;12.60;99.90
23251;DHT22;11794;49.730;10.088;2022-11-04T14:21:15;12.50;99.90
23251;DHT22;11794;49.730;10.088;2022-11-04T14:23:58;12.40;99.90
23251;DHT22;11794;49.730;10.088;2022-11-04T14:26:44;12.40;99.90
23251;DHT22;11794;49.730;10.088;2022-11-04T14:29:21;12.40;99.90
23251;DHT22;11794;49.730;10.088;2022-11-04T14:31:52;12.30;99.90
23251;DHT22;11794;49.730;10.088;2022-11-04T14:34:27;12.30;99.90
23251;DHT22;11794;49.730;10.088;2022-11-04T14:37:03;12.20;99.90
23251;DHT22;11794;49.730;10.088;2022-11-04T14:39:37;12.20;99.90
23251;DHT22;11794;49.730;10.088;2022-11-04T14:42:04;12.20;99.90
23251;DHT22;11794;49.730;10.088;2022-11-04T14:44:42;12.20;99.90
23251;DHT22;11794;49.730;10.088;2022-11-04T14:49:48;12.10;99.90
23251;DHT22;11794;49.730;10.088;2022-11-04T14:52:22;12.10;99.90
23251;DHT22;11794;49.730;10.088;2022-11-04T14:54:49;12.00;99.90
23251;DHT22;11794;49.730;10.088;2022-11-04T14:57:20;12.00;99.90
23251;DHT22;11794;49.730;10.088;2022-11-04T14:59:46;11.90;99.90
23251;DHT22;11794;49.730;10.088;2022-11-04T15:02:15;11.90;99.90
23251;DHT22;11794;49.730;10.088;2022-11-04T15:04:47;12.00;99.90
23251;DHT22;11794;49.730;10.088;2022-11-04T15:07:32;11.90;99.90
23251;DHT22;11794;49.730;10.088;2022-11-04T15:10:00;11.90;99.90
23251;DHT22;11794;49.730;10.088;2022-11-04T15:12:26;11.90;99.90
23251;DHT22;11794;49.730;10.088;2022-11-04T15:15:37;11.90;99.90
23251;DHT22;11794;49.730;10.088;2022-11-04T15:18:13;11.90;99.90
23251;DHT22;11794;49.730;10.088;2022-11-04T15:20:45;11.80;99.90
23251;DHT22;11794;49.730;10.088;2022-11-04T15:23:15;11.80;99.90
23251;DHT22;11794;49.730;10.088;2022-11-04T15:25:48;11.80;99.90
23251;DHT22;11794;49.730;10.088;2022-11-04T15:28:18;11.70;99.90
23251;DHT22;11794;49.730;10.088;2022-11-04T15:30:56;11.70;99.90
23251;DHT22;11794;49.730;10.088;2022-11-04T15:33:24;11.70;99.90
23251;DHT22;11794;49.730;10.088;2022-11-04T15:35:50;11.70;99.90
23251;DHT22;11794;49.730;10.088;2022-11-04T15:38:16;11.60;99.90
23251;DHT22;11794;49.730;10.088;2022-11-04T15:40:43;11.50;99.90
23251;DHT22;11794;49.730;10.088;2022-11-04T15:43:09;11.60;99.90
23251;DHT22;11794;49.730;10.088;2022-11-04T15:45:38;11.60;99.90
23251;DHT22;11794;49.730;10.088;2022-11-04T15:48:30;11.60;99.90
23251;DHT22;11794;49.730;10.088;2022-11-04T15:54:35;11.40;99.90
23251;DHT22;11794;49.730;10.088;2022-11-04T15:57:04;11.30;99.90
23251;DHT22;11794;49.730;10.088;2022-11-04T15:59:37;11.30;99.90
23251;DHT22;11794;49.730;10.088;2022-11-04T16:02:04;11.20;99.90
23251;DHT22;11794;49.730;10.088;2022-11-04T16:04:31;11.20;99.90
23251;DHT22;11794;49.730;10.088;2022-11-04T16:09:46;11.00;99.90
23251;DHT22;11794;49.730;10.088;2022-11-04T16:12:23;11.00;99.90
23251;DHT22;11794;49.730;10.088;2022-11-04T16:14:54;10.90;99.90
23251;DHT22;11794;49.730;10.088;2022-11-04T16:17:20;10.90;99.90
23251;DHT22;11794;49.730;10.088;2022-11-04T16:19:49;10.80;99.90
23251;DHT22;11794;49.730;10.088;2022-11-04T16:22:29;10.80;99.90
23251;DHT22;11794;49.730;10.088;2022-11-04T16:24:56;10.80;99.90
23251;DHT22;11794;49.730;10.088;2022-11-04T16:27:23;10.80;99.90
23251;DHT22;11794;49.730;10.088;2022-11-04T16:32:46;10.70;99.90
23251;DHT22;11794;49.730;10.088;2022-11-04T16:35:24;10.70;99.90
23251;DHT22;11794;49.730;10.088;2022-11-04T16:37:51;10.60;99.90
23251;DHT22;11794;49.730;10.088;2022-11-04T16:40:18;10.50;99.90
23251;DHT22;11794;49.730;10.088;2022-11-04T16:42:45;10.50;99.90
23251;DHT22;11794;49.730;10.088;2022-11-04T16:45:37;10.40;99.90
23251;DHT22;11794;49.730;10.088;2022-11-04T16:48:03;10.40;99.90
23251;DHT22;11794;49.730;10.088;2022-11-04T16:50:29;10.30;99.90
23251;DHT22;11794;49.730;10.088;2022-11-04T16:52:58;10.30;99.90
23251;DHT22;11794;49.730;10.088;2022-11-04T16:55:25;10.20;99.90
23251;DHT22;11794;49.730;10.088;2022-11-04T16:58:01;10.20;99.90
23251;DHT22;11794;49.730;10.088;2022-11-04T17:00:28;10.10;99.90
23251;DHT22;11794;49.730;10.088;2022-11-04T17:02:57;10.20;99.90
23251;DHT22;11794;49.730;10.088;2022-11-04T17:05:23;10.30;99.90
23251;DHT22;11794;49.730;10.088;2022-11-04T17:07:48;10.20;99.90
23251;DHT22;11794;49.730;10.088;2022-11-04T17:10:18;10.20;99.90
23251;DHT22;11794;49.730;10.088;2022-11-04T17:12:44;10.10;99.90
23251;DHT22;11794;49.730;10.088;2022-11-04T17:15:10;10.00;99.90
23251;DHT22;11794;49.730;10.088;2022-11-04T17:17:36;10.00;99.90
23251;DHT22;11794;49.730;10.088;2022-11-04T17:20:02;9.90;99.90
23251;DHT22;11794;49.730;10.088;2022-11-04T17:22:30;9.90;99.90
23251;DHT22;11794;49.730;10.088;2022-11-04T17:24:56;10.00;99.90
23251;DHT22;11794;49.730;10.088;2022-11-04T17:27:22;9.90;99.90
23251;DHT22;11794;49.730;10.088;2022-11-04T17:29:47;10.00;99.90
23251;DHT22;11794;49.730;10.088;2022-11-04T17:32:13;9.90;99.90
23251;DHT22;11794;49.730;10.088;2022-11-04T17:34:38;9.90;99.90
23251;DHT22;11794;49.730;10.088;2022-11-04T17:37:05;9.90;99.90
23251;DHT22;11794;49.730;10.088;2022-11-04T17:39:30;9.70;99.90
23251;DHT22;11794;49.730;10.088;2022-11-04T17:41:56;9.70;99.90
23251;DHT22;11794;49.730;10.088;2022-11-04T17:44:40;9.80;99.90
23251;DHT22;11794;49.730;10.088;2022-11-04T17:47:06;9.70;99.90
23251;DHT22;11794;49.730;10.088;2022-11-04T17:49:34;9.60;99.90
23251;DHT22;11794;49.730;10.088;2022-11-04T17:52:00;9.50;99.90
23251;DHT22;11794;49.730;10.088;2022-11-04T17:54:27;9.50;99.90
23251;DHT22;11794;49.730;10.088;2022-11-04T17:56:55;9.60;99.90